Time;durP1;ratioP1;P1;durP2;ratioP2;P2;SDS_P1;SDS_P2;PMS_P1;PMS_P2;Temp;Humidity;BMP_temperature;BMP_pressure;BME280_temperature;BME280_humidity;BME280_pressure;Samples;Min_cycle;Max_cycle;Signal;HPM_P1;HPM_P2
2022/01/19 00:00:13;;;;;;;30.55;17.30;;;;;;;0.64;89.60;103121.69;5026349;28;20087;-73
2022/01/19 00:02:38;;;;;;;33.30;16.70;;;;;;;0.58;89.31;103113.72;5037466;28;20021;-73
2022/01/19 00:05:05;;;;;;;29.08;14.10;;;;;;;0.52;89.37;103103.13;5028895;28;20029;-73
2022/01/19 00:07:31;;;;;;;31.30;13.45;;;;;;;0.46;89.87;103095.16;5040405;28;20025;-73
2022/01/19 00:10:02;;;;;;;31.65;15.10;;;;;;;0.43;89.45;103093.38;5030811;28;20133;-73
2022/01/19 00:12:27;;;;;;;31.48;13.90;;;;;;;0.40;88.85;103092.50;5040338;28;20037;-73
2022/01/19 00:14:52;;;;;;;28.77;12.98;;;;;;;0.37;88.99;103106.59;5035692;28;20127;-73
2022/01/19 00:17:17;;;;;;;31.85;14.82;;;;;;;0.37;89.37;103113.59;5036954;28;20033;-72
2022/01/19 00:19:43;;;;;;;30.60;13.55;;;;;;;0.34;89.39;103112.72;5033711;28;20037;-73
2022/01/19 00:22:09;;;;;;;30.50;13.60;;;;;;;0.36;89.83;103101.28;5026842;28;20037;-73
2022/01/19 00:24:34;;;;;;;29.33;15.05;;;;;;;0.36;89.93;103098.63;5033072;28;20049;-73
2022/01/19 00:26:59;;;;;;;31.85;15.80;;;;;;;0.36;89.58;103091.56;5027676;28;20633;-73
2022/01/19 00:29:24;;;;;;;28.50;14.02;;;;;;;0.36;89.57;103073.06;5036126;28;20041;-73
2022/01/19 00:31:50;;;;;;;28.38;14.35;;;;;;;0.31;89.15;103057.16;5036630;28;20052;-73
2022/01/19 00:34:15;;;;;;;37.20;16.05;;;;;;;0.29;89.50;103037.78;5040295;28;20539;-73
2022/01/19 00:36:40;;;;;;;32.53;14.40;;;;;;;0.25;89.32;103019.22;5028282;28;20035;-73
2022/01/19 00:39:05;;;;;;;28.00;14.68;;;;;;;0.24;89.56;103006.91;5035163;28;20115;-73
2022/01/19 00:41:31;;;;;;;29.23;14.73;;;;;;;0.20;89.36;102998.03;5031348;28;20041;-73
2022/01/19 00:43:59;;;;;;;35.58;14.88;;;;;;;0.19;89.87;102992.75;5027440;28;20039;-73
2022/01/19 00:46:24;;;;;;;36.03;16.50;;;;;;;0.22;89.90;103004.25;5033537;28;20057;-73
2022/01/19 00:48:49;;;;;;;29.45;14.02;;;;;;;0.27;90.74;103017.47;5034438;28;20394;-73
2022/01/19 00:51:15;;;;;;;32.22;14.88;;;;;;;0.29;90.73;103019.25;5026268;28;20033;-73
2022/01/19 00:53:40;;;;;;;33.90;15.80;;;;;;;0.28;89.84;103025.41;5030305;28;20030;-73
2022/01/19 00:56:05;;;;;;;36.55;17.52;;;;;;;0.29;90.53;103021.00;5028421;28;20051;-73
2022/01/19 00:58:30;;;;;;;32.00;17.70;;;;;;;0.29;90.50;103031.59;5032281;28;20038;-73
2022/01/19 01:00:56;;;;;;;99.47;22.15;;;;;;;0.28;90.58;103038.66;5036435;28;20374;-73
2022/01/19 01:03:21;;;;;;;97.50;24.40;;;;;;;0.30;91.91;103041.28;5042200;28;20025;-73
2022/01/19 01:05:46;;;;;;;40.47;17.92;;;;;;;0.29;92.22;103036.88;5029201;28;20041;-73
2022/01/19 01:08:12;;;;;;;71.70;18.00;;;;;;;0.24;92.42;103023.63;5036572;28;20033;-73
2022/01/19 01:10:43;;;;;;;111.63;21.63;;;;;;;0.21;93.12;103013.03;5033287;28;20156;-73
2022/01/19 01:16:05;;;;;;;102.60;19.38;;;;;;;0.11;92.71;102998.88;4998063;28;20042;-73
2022/01/19 01:18:32;;;;;;;62.08;17.80;;;;;;;0.08;92.43;102990.06;5007871;28;20045;-72
2022/01/19 01:20:59;;;;;;;49.50;17.20;;;;;;;0.03;92.54;102975.94;5008034;28;20106;-72
2022/01/19 01:23:26;;;;;;;66.95;16.50;;;;;;;0.02;92.02;102963.59;5021006;28;20040;-72
2022/01/19 01:25:53;;;;;;;44.53;15.80;;;;;;;-0.01;92.29;102957.41;5015199;28;20025;-73
2022/01/19 01:28:18;;;;;;;47.20;15.98;;;;;;;0.05;93.67;102955.69;5013310;28;20096;-73
2022/01/19 01:30:45;;;;;;;59.75;17.60;;;;;;;0.14;94.42;102947.78;5010164;28;20033;-73
2022/01/19 01:33:11;;;;;;;61.63;17.80;;;;;;;0.22;94.23;102938.13;5024976;28;20424;-73
2022/01/19 01:35:37;;;;;;;40.80;15.25;;;;;;;0.31;94.86;102924.94;5002023;28;20140;-73
2022/01/19 01:38:03;;;;;;;41.60;16.25;;;;;;;0.42;95.03;102914.34;5021892;28;20033;-73
2022/01/19 01:40:32;;;;;;;90.70;17.88;;;;;;;0.52;95.96;102892.34;5015482;28;20045;-73
2022/01/19 01:42:58;;;;;;;82.20;17.43;;;;;;;0.60;95.79;102888.81;5021433;28;20497;-73
2022/01/19 01:45:28;;;;;;;42.95;15.85;;;;;;;0.65;95.55;102882.66;5010657;28;20034;-73
2022/01/19 01:48:06;;;;;;;32.70;15.90;;;;;;;0.66;95.28;102881.78;5010978;28;20075;-73
2022/01/19 01:53:26;;;;;;;32.15;15.45;;;;;;;0.73;94.20;102895.00;5019826;28;20053;-73
2022/01/19 01:56:00;;;;;;;27.85;15.75;;;;;;;0.74;94.08;102907.38;5028342;28;20030;-73
2022/01/19 01:58:28;;;;;;;30.27;16.10;;;;;;;0.75;94.07;102906.47;5033748;28;20037;-72
2022/01/19 02:00:54;;;;;;;31.48;16.75;;;;;;;0.71;93.06;102905.59;5036233;28;20021;-72
2022/01/19 02:03:20;;;;;;;29.90;15.68;;;;;;;0.64;92.10;102895.88;5046792;28;20048;-74
2022/01/19 02:06:21;;;;;;;31.05;15.13;;;;;;;0.54;91.88;102887.03;5019370;28;20065;-73
2022/01/19 02:08:48;;;;;;;152.48;24.17;;;;;;;0.44;91.54;102877.31;5020387;28;20069;-73
2022/01/19 02:21:38;;;;;;;372.48;37.53;;;;;;;0.15;92.44;102864.94;5017592;28;20821;-73
2022/01/19 02:24:06;;;;;;;299.55;30.42;;;;;;;0.08;92.28;102868.44;5014946;28;20029;-73
2022/01/19 02:26:52;;;;;;;144.45;21.00;;;;;;;0.00;91.99;102871.06;5025981;28;20390;-73
2022/01/19 02:30:09;;;;;;;118.50;22.08;;;;;;;-0.03;92.03;102858.72;5025596;28;20029;-73
2022/01/19 02:40:27;;;;;;;65.55;16.95;;;;;;;-0.19;92.18;102802.28;5034021;28;20397;-73
2022/01/19 02:43:08;;;;;;;107.75;20.98;;;;;;;-0.22;91.92;102789.06;5031306;28;20597;-73
2022/01/19 02:51:06;;;;;;;92.60;16.52;;;;;;;-0.37;90.67;102774.06;5032322;28;20040;-73
2022/01/19 02:53:36;;;;;;;48.03;12.40;;;;;;;-0.39;90.73;102773.16;5028370;28;20018;-73
2022/01/19 02:56:07;;;;;;;23.08;10.98;;;;;;;-0.41;90.95;102780.19;5026757;28;20083;-73
2022/01/19 02:58:37;;;;;;;30.80;11.57;;;;;;;-0.45;90.32;102778.41;5031993;28;20033;-73
2022/01/19 03:09:14;;;;;;;27.05;11.65;;;;;;;-0.51;91.14;102751.09;5036164;28;20112;-73
2022/01/19 03:11:39;;;;;;;24.38;12.48;;;;;;;-0.48;90.56;102746.72;5031454;28;20553;-73
2022/01/19 03:14:08;;;;;;;27.17;10.93;;;;;;;-0.49;90.52;102749.34;5035933;28;20743;-73
2022/01/19 03:16:33;;;;;;;29.05;14.20;;;;;;;-0.51;90.07;102744.06;5028120;28;20040;-73
2022/01/19 03:18:58;;;;;;;26.40;12.57;;;;;;;-0.49;89.98;102737.00;5030125;28;20422;-73
2022/01/19 03:21:23;;;;;;;27.52;12.38;;;;;;;-0.47;90.38;102745.84;5042160;28;20041;-73
2022/01/19 03:23:49;;;;;;;26.08;13.40;;;;;;;-0.45;90.15;102724.72;5031536;28;20104;-73
2022/01/19 03:26:14;;;;;;;24.73;12.00;;;;;;;-0.46;90.35;102729.09;5027971;28;20029;-73
2022/01/19 03:28:39;;;;;;;25.58;11.73;;;;;;;-0.43;91.14;102722.94;5029288;28;20430;-74
2022/01/19 03:31:05;;;;;;;25.58;12.30;;;;;;;-0.41;91.08;102716.78;5029659;28;20029;-74
2022/01/19 03:33:30;;;;;;;27.13;12.48;;;;;;;-0.40;91.07;102710.59;5027957;28;20034;-73
2022/01/19 03:35:56;;;;;;;25.42;12.40;;;;;;;-0.39;91.47;102704.47;5029645;28;20040;-73
2022/01/19 03:38:21;;;;;;;27.73;13.45;;;;;;;-0.37;91.22;102702.72;5027765;28;20473;-72
2022/01/19 03:40:47;;;;;;;29.20;13.52;;;;;;;-0.32;90.88;102699.19;5027942;28;20037;-73
2022/01/19 03:43:12;;;;;;;30.63;14.43;;;;;;;-0.32;90.60;102693.91;5036193;28;20668;-74
2022/01/19 03:45:38;;;;;;;31.90;15.13;;;;;;;-0.30;90.85;102695.66;5031219;28;20434;-73
2022/01/19 03:48:20;;;;;;;28.88;15.60;;;;;;;-0.28;91.31;102690.38;5033429;28;20021;-73
2022/01/19 03:50:46;;;;;;;34.00;15.50;;;;;;;-0.27;91.32;102673.66;5029947;28;20503;-73
2022/01/19 03:53:11;;;;;;;33.58;16.77;;;;;;;-0.21;92.24;102674.53;5028140;28;20021;-73
2022/01/19 03:55:37;;;;;;;31.13;16.80;;;;;;;-0.19;91.81;102664.88;5039044;28;20502;-74
2022/01/19 03:58:02;;;;;;;31.80;16.70;;;;;;;-0.15;92.04;102656.94;5025926;28;20017;-73
2022/01/19 04:00:28;;;;;;;36.85;18.23;;;;;;;-0.14;91.52;102653.41;5029608;28;20049;-74
2022/01/19 04:02:53;;;;;;;33.65;17.10;;;;;;;-0.10;92.40;102658.72;5038763;28;20014;-74
2022/01/19 04:05:39;;;;;;;37.97;18.33;;;;;;;-0.07;92.28;102652.53;5030458;28;20034;-74
2022/01/19 04:08:04;;;;;;;36.80;18.15;;;;;;;-0.01;93.08;102648.13;5015579;28;20017;-73
2022/01/19 04:10:30;;;;;;;39.05;20.17;;;;;;;0.05;93.33;102659.59;5032265;28;20149;-73
2022/01/19 04:13:08;;;;;;;34.20;18.58;;;;;;;0.08;93.65;102652.53;5040020;28;20125;-73
2022/01/19 04:15:34;;;;;;;34.90;19.00;;;;;;;0.11;93.55;102651.66;5027375;28;20091;-73
2022/01/19 04:17:59;;;;;;;34.05;18.67;;;;;;;0.14;93.46;102636.66;5038843;28;20033;-73
2022/01/19 04:20:26;;;;;;;36.40;20.58;;;;;;;0.16;93.53;102642.84;5026435;28;20519;-73
2022/01/19 04:22:52;;;;;;;36.60;19.55;;;;;;;0.15;93.27;102637.56;5028651;28;20049;-73
2022/01/19 04:25:17;;;;;;;37.97;19.83;;;;;;;0.16;93.40;102636.66;5033899;28;20072;-73
2022/01/19 04:27:43;;;;;;;37.22;20.17;;;;;;;0.17;93.49;102638.41;5015378;28;20026;-73
2022/01/19 04:30:12;;;;;;;32.25;16.95;;;;;;;0.16;93.44;102634.00;5036803;28;20079;-73
2022/01/19 04:33:02;;;;;;;33.67;19.13;;;;;;;0.16;93.99;102641.94;5042094;28;20425;-73
2022/01/19 04:35:31;;;;;;;40.22;19.92;;;;;;;0.19;94.17;102655.19;5039037;28;20111;-73
2022/01/19 04:49:10;;;;;;;43.35;25.05;;;;;;;0.30;94.47;102645.44;5018851;28;20167;-73
2022/01/19 05:05:46;;;;;;;38.92;24.10;;;;;;;0.39;95.02;102638.41;5009770;28;20038;-72
2022/01/19 05:08:09;;;;;;;42.65;23.73;;;;;;;0.39;95.00;102626.03;5003862;28;20180;-72
2022/01/19 05:15:52;;;;;;;39.45;21.58;;;;;;;0.43;95.08;102625.16;5007636;28;20204;-72
2022/01/19 05:18:18;;;;;;;60.65;25.02;;;;;;;0.40;94.94;102622.53;5016914;28;20033;-72
2022/01/19 05:20:45;;;;;;;38.92;21.38;;;;;;;0.39;95.09;102628.69;5017427;28;20089;-72
2022/01/19 05:23:11;;;;;;;43.50;23.08;;;;;;;0.39;95.16;102628.69;5009673;28;20034;-72
2022/01/19 05:25:36;;;;;;;40.30;22.88;;;;;;;0.38;95.33;102620.75;5027517;28;20037;-73
2022/01/19 05:28:01;;;;;;;41.50;22.00;;;;;;;0.38;95.33;102626.03;5030842;28;20048;-73
2022/01/19 05:30:26;;;;;;;38.78;21.23;;;;;;;0.39;95.15;102631.34;5029817;28;20064;-73
2022/01/19 05:32:52;;;;;;;35.08;20.73;;;;;;;0.40;95.34;102632.22;5035303;28;20116;-72
2022/01/19 05:35:17;;;;;;;41.95;23.15;;;;;;;0.42;95.38;102635.75;5033019;28;20086;-73
2022/01/19 05:37:42;;;;;;;35.08;20.58;;;;;;;0.43;94.99;102632.22;5031657;28;20077;-72
2022/01/19 05:40:11;;;;;;;40.95;18.95;;;;;;;0.46;95.05;102626.91;5032831;28;20095;-73
2022/01/19 05:42:36;;;;;;;36.92;20.20;;;;;;;0.49;94.95;102626.91;5041144;28;20033;-71
2022/01/19 05:45:03;;;;;;;35.92;20.13;;;;;;;0.50;95.02;102612.81;5032248;28;20115;-73
2022/01/19 05:47:28;;;;;;;36.25;20.17;;;;;;;0.53;95.15;102618.09;5044943;28;20135;-73
2022/01/19 05:49:53;;;;;;;35.13;17.73;;;;;;;0.56;94.79;102614.53;5029528;28;20083;-73
2022/01/19 05:52:19;;;;;;;34.50;19.15;;;;;;;0.59;94.69;102606.59;5035291;28;20033;-73
2022/01/19 05:54:45;;;;;;;37.33;19.83;;;;;;;0.62;94.82;102606.59;5033831;28;20014;-73
2022/01/19 05:57:10;;;;;;;32.63;19.02;;;;;;;0.64;94.79;102605.69;5038040;28;20444;-73
2022/01/19 05:59:35;;;;;;;33.95;18.80;;;;;;;0.68;94.90;102612.72;5035035;28;20033;-73
2022/01/19 06:02:01;;;;;;;32.90;20.83;;;;;;;0.71;94.51;102608.31;5037308;28;20027;-73
2022/01/19 06:04:26;;;;;;;33.97;18.30;;;;;;;0.72;94.42;102604.78;5032609;28;20044;-73
2022/01/19 06:06:56;;;;;;;30.88;17.15;;;;;;;0.75;94.60;102610.06;5041772;28;20373;-73
2022/01/19 06:10:09;;;;;;;33.95;19.20;;;;;;;0.76;94.45;102606.53;5032088;28;20021;-72
2022/01/19 06:12:09;;;;;;;35.92;20.20;;;;;;;0.75;94.22;102600.38;5020186;28;20493;-73
2022/01/19 06:14:36;;;;;;;33.38;19.23;;;;;;;0.80;94.16;102600.34;5038180;28;20057;-72
2022/01/19 06:17:03;;;;;;;33.35;18.25;;;;;;;0.80;94.33;102592.41;5029933;28;20450;-72
2022/01/19 06:19:28;;;;;;;34.20;18.88;;;;;;;0.84;94.42;102592.38;5043441;28;20410;-72
2022/01/19 06:21:54;;;;;;;34.97;19.08;;;;;;;0.86;94.36;102589.72;5030459;28;20060;-73
2022/01/19 06:24:19;;;;;;;35.20;19.88;;;;;;;0.86;94.07;102589.72;5036591;28;20427;-73
2022/01/19 06:26:45;;;;;;;33.47;19.42;;;;;;;0.88;94.00;102593.25;5027270;28;20087;-73
2022/01/19 06:29:10;;;;;;;35.30;19.45;;;;;;;0.92;93.98;102584.38;5033117;28;20484;-73
2022/01/19 06:31:35;;;;;;;32.88;19.85;;;;;;;0.94;94.07;102572.03;5029930;28;20056;-73
2022/01/19 06:34:01;;;;;;;36.67;19.40;;;;;;;0.98;93.88;102572.88;5014389;28;20116;-73
2022/01/19 06:36:26;;;;;;;35.60;17.27;;;;;;;0.98;94.16;102570.25;5027149;28;20048;-73
2022/01/19 06:38:52;;;;;;;37.97;18.52;;;;;;;1.00;93.70;102571.13;5026957;28;20051;-73
2022/01/19 06:41:17;;;;;;;30.73;16.85;;;;;;;1.02;94.07;102566.69;5023751;28;20108;-73
2022/01/19 06:43:42;;;;;;;36.63;18.65;;;;;;;1.02;93.81;102553.47;5028572;28;20017;-73
2022/01/19 06:46:08;;;;;;;32.13;18.20;;;;;;;1.03;94.03;102553.44;5045735;28;20373;-72
2022/01/19 06:48:33;;;;;;;34.80;18.23;;;;;;;1.07;93.91;102545.47;5034818;28;20127;-72
2022/01/19 06:50:58;;;;;;;33.88;18.67;;;;;;;1.08;94.04;102552.53;5044239;28;20022;-73
2022/01/19 06:53:24;;;;;;;32.17;18.05;;;;;;;1.08;93.79;102541.94;5027871;28;20029;-72
2022/01/19 06:55:49;;;;;;;34.28;19.73;;;;;;;1.10;93.97;102540.16;5040349;28;20033;-73
2022/01/19 06:58:15;;;;;;;32.53;17.70;;;;;;;1.13;94.13;102537.50;5035559;28;20090;-73
2022/01/19 07:00:40;;;;;;;32.28;18.45;;;;;;;1.13;93.69;102529.53;5034534;28;20033;-73
2022/01/19 07:03:06;;;;;;;34.95;18.98;;;;;;;1.12;94.27;102533.09;5042916;28;20067;-73
2022/01/19 07:05:31;;;;;;;34.72;16.73;;;;;;;1.13;94.18;102529.53;5032822;28;20438;-73
2022/01/19 07:07:57;;;;;;;35.88;20.40;;;;;;;1.16;94.07;102524.25;5039523;28;20108;-73
2022/01/19 07:10:23;;;;;;;35.33;18.60;;;;;;;1.16;94.28;102524.25;5035723;28;20124;-73
2022/01/19 07:12:49;;;;;;;33.15;17.85;;;;;;;1.18;94.51;102525.13;5024111;28;20033;-73
2022/01/19 07:15:14;;;;;;;32.75;18.02;;;;;;;1.19;94.49;102521.59;5033501;28;20030;-72
2022/01/19 07:17:40;;;;;;;34.35;19.75;;;;;;;1.19;94.23;102521.59;5026272;28;20029;-72
2022/01/19 07:20:06;;;;;;;35.72;19.48;;;;;;;1.18;94.71;102509.22;5027724;28;20136;-72
2022/01/19 07:22:31;;;;;;;35.00;18.45;;;;;;;1.19;94.80;102518.94;5021829;28;20147;-72
2022/01/19 07:24:58;;;;;;;35.03;19.48;;;;;;;1.19;94.67;102514.50;5018398;28;20545;-72
2022/01/19 07:27:24;;;;;;;33.50;17.67;;;;;;;1.20;94.82;102512.72;5023723;28;20557;-72
2022/01/19 07:29:49;;;;;;;32.53;16.58;;;;;;;1.24;94.97;102516.25;5019401;28;20026;-72
2022/01/19 07:32:14;;;;;;;31.98;18.65;;;;;;;1.25;94.83;102516.22;5023934;28;20025;-73
2022/01/19 07:34:40;;;;;;;32.28;18.20;;;;;;;1.26;94.72;102510.06;5027278;28;20112;-73
2022/01/19 07:37:05;;;;;;;30.63;17.48;;;;;;;1.29;95.15;102510.03;5024946;28;20029;-72
2022/01/19 07:39:30;;;;;;;35.97;17.23;;;;;;;1.32;95.07;102509.13;5027582;28;20120;-72
2022/01/19 07:41:56;;;;;;;30.48;17.00;;;;;;;1.33;94.99;102509.13;5025835;28;20036;-73
2022/01/19 07:44:22;;;;;;;32.15;16.58;;;;;;;1.35;95.01;102499.38;5026296;28;20152;-73
2022/01/19 07:46:48;;;;;;;31.33;17.15;;;;;;;1.37;95.24;102497.59;5025374;28;20175;-73
2022/01/19 07:49:14;;;;;;;33.95;17.95;;;;;;;1.38;94.94;102494.06;5032467;28;20112;-73
2022/01/19 07:51:39;;;;;;;31.50;18.35;;;;;;;1.40;95.18;102499.34;5024760;28;20029;-72
2022/01/19 07:54:05;;;;;;;32.92;18.63;;;;;;;1.43;95.31;102493.13;5027666;28;20056;-73
2022/01/19 07:56:30;;;;;;;33.78;18.20;;;;;;;1.45;95.38;102499.28;5041060;28;20044;-72
2022/01/19 07:58:55;;;;;;;30.85;16.17;;;;;;;1.47;95.45;102497.53;5023833;28;20064;-72
2022/01/19 08:01:21;;;;;;;29.98;16.90;;;;;;;1.49;95.32;102498.38;5023299;28;20021;-72
2022/01/19 08:03:46;;;;;;;32.13;18.65;;;;;;;1.52;95.06;102493.03;5022387;28;20033;-73
2022/01/19 08:06:11;;;;;;;33.22;17.48;;;;;;;1.55;95.08;102485.06;5022224;28;20029;-73
2022/01/19 08:08:37;;;;;;;32.25;16.73;;;;;;;1.56;95.34;102487.69;5023286;28;20481;-73
2022/01/19 08:11:03;;;;;;;35.33;15.50;;;;;;;1.57;95.30;102488.59;5026327;28;20041;-72
2022/01/19 08:13:28;;;;;;;33.72;19.35;;;;;;;1.58;95.13;102490.34;5031176;28;20402;-72
2022/01/19 08:15:53;;;;;;;32.53;17.23;;;;;;;1.63;95.34;102482.38;5030599;28;20025;-72
2022/01/19 08:18:19;;;;;;;31.15;17.73;;;;;;;1.63;95.08;102485.88;5032244;28;20033;-73
2022/01/19 08:20:44;;;;;;;32.22;17.23;;;;;;;1.63;95.21;102475.28;5027361;28;20107;-72
2022/01/19 08:23:10;;;;;;;29.17;15.98;;;;;;;1.67;95.20;102473.47;5026622;28;20144;-73
2022/01/19 08:25:35;;;;;;;30.70;16.20;;;;;;;1.68;95.08;102470.78;5033434;28;20029;-73
2022/01/19 08:28:01;;;;;;;28.58;16.25;;;;;;;1.69;94.99;102467.25;5031047;28;20036;-73
2022/01/19 08:30:26;;;;;;;31.55;16.75;;;;;;;1.72;95.20;102469.88;5040478;28;20046;-73
2022/01/19 08:32:51;;;;;;;31.67;18.63;;;;;;;1.74;94.95;102469.88;5033359;28;20152;-73
2022/01/19 08:35:17;;;;;;;32.72;16.77;;;;;;;1.74;95.02;102462.81;5047871;28;20484;-72
2022/01/19 08:37:42;;;;;;;31.08;15.45;;;;;;;1.78;94.86;102462.78;5035398;28;20083;-72
2022/01/19 08:40:09;;;;;;;30.85;16.15;;;;;;;1.80;94.94;102460.97;5039312;28;20017;-72
2022/01/19 08:42:36;;;;;;;29.00;15.82;;;;;;;1.82;94.85;102457.41;5027128;28;21429;-73
2022/01/19 08:45:07;;;;;;;28.63;15.52;;;;;;;1.84;95.24;102454.75;5027363;28;20022;-73
2022/01/19 08:47:33;;;;;;;29.23;15.45;;;;;;;1.88;94.83;102456.47;5025659;28;20385;-73
2022/01/19 08:49:58;;;;;;;32.42;17.00;;;;;;;1.87;94.72;102444.97;5022412;28;20037;-73
2022/01/19 08:52:23;;;;;;;33.35;16.83;;;;;;;1.89;94.70;102443.19;5027492;28;20120;-73
2022/01/19 08:54:49;;;;;;;29.38;15.50;;;;;;;1.91;94.75;102440.53;5026092;28;20022;-73
2022/01/19 08:57:15;;;;;;;28.40;15.73;;;;;;;1.91;95.14;102433.44;5025768;28;20029;-72
2022/01/19 08:59:40;;;;;;;28.63;15.13;;;;;;;1.94;94.76;102436.97;5028346;28;20473;-73
2022/01/19 09:02:06;;;;;;;33.83;17.55;;;;;;;1.95;94.73;102436.06;5028797;28;20061;-73
2022/01/19 09:04:32;;;;;;;31.77;17.30;;;;;;;1.95;94.73;102436.06;5026270;28;20026;-73
2022/01/19 09:06:59;;;;;;;31.85;17.13;;;;;;;1.97;94.84;102434.28;5024141;28;20084;-73
2022/01/19 09:09:24;;;;;;;29.73;16.85;;;;;;;1.98;94.98;102431.63;5027704;28;20336;-73
2022/01/19 09:11:50;;;;;;;30.13;16.20;;;;;;;2.00;94.96;102427.16;5030310;28;20033;-73
2022/01/19 09:14:15;;;;;;;32.20;17.17;;;;;;;2.02;94.86;102419.19;5027158;28;20044;-72
2022/01/19 09:16:40;;;;;;;28.00;16.40;;;;;;;2.06;94.79;102424.41;5026373;28;20516;-73
2022/01/19 09:19:07;;;;;;;28.00;15.57;;;;;;;2.07;94.88;102423.53;5025188;28;20442;-73
2022/01/19 09:21:33;;;;;;;29.27;16.08;;;;;;;2.09;94.92;102420.84;5029397;28;20062;-72
2022/01/19 09:23:58;;;;;;;32.10;16.05;;;;;;;2.12;94.63;102423.47;5029694;28;20388;-72
2022/01/19 09:26:23;;;;;;;32.70;17.13;;;;;;;2.13;94.74;102427.88;5026348;28;20068;-72
2022/01/19 09:28:49;;;;;;;27.30;14.55;;;;;;;2.15;94.78;102423.44;5026321;28;20033;-72
2022/01/19 09:31:17;;;;;;;28.92;15.60;;;;;;;2.16;94.35;102421.66;5034477;28;20091;-72
2022/01/19 09:33:44;;;;;;;29.75;15.20;;;;;;;2.18;94.52;102415.47;5049795;28;20346;-72
2022/01/19 09:36:29;;;;;;;30.85;15.77;;;;;;;2.19;94.49;102409.22;5032696;28;20033;-72
2022/01/19 09:38:55;;;;;;;28.45;15.10;;;;;;;2.20;94.47;102405.69;5029229;28;20041;-72
2022/01/19 09:41:21;;;;;;;26.85;13.75;;;;;;;2.23;94.46;102402.13;5028197;28;20036;-72
2022/01/19 09:43:46;;;;;;;28.90;15.70;;;;;;;2.26;94.90;102397.66;5027847;28;20021;-72
2022/01/19 09:46:11;;;;;;;32.58;15.93;;;;;;;2.28;94.52;102392.31;5025265;28;20159;-72
2022/01/19 09:48:37;;;;;;;29.88;15.65;;;;;;;2.31;94.61;102386.97;5027016;28;20032;-73
2022/01/19 09:51:02;;;;;;;28.33;15.95;;;;;;;2.34;94.23;102378.09;5027078;28;20037;-73
2022/01/19 09:53:28;;;;;;;28.45;15.35;;;;;;;2.34;94.28;102376.31;5021284;28;20052;-73
2022/01/19 09:55:53;;;;;;;27.58;15.05;;;;;;;2.36;94.40;102371.88;5028385;28;20026;-73
2022/01/19 09:58:21;;;;;;;29.05;16.17;;;;;;;2.38;94.30;102364.75;5025450;28;20048;-73
2022/01/19 10:00:47;;;;;;;27.13;15.32;;;;;;;2.39;94.46;102363.88;5028010;28;20085;-73
2022/01/19 10:03:23;;;;;;;28.55;15.25;;;;;;;2.42;94.43;102363.81;5026132;28;20051;-74
2022/01/19 10:06:08;;;;;;;27.83;16.25;;;;;;;2.44;94.91;102362.00;5020585;28;20037;-73
2022/01/19 10:08:48;;;;;;;31.17;15.48;;;;;;;2.50;94.80;102365.47;5026401;28;20048;-73
2022/01/19 10:11:39;;;;;;;30.25;15.82;;;;;;;2.51;94.44;102360.16;5030063;28;20119;-73
2022/01/19 10:17:03;;;;;;;29.98;16.05;;;;;;;2.56;94.07;102349.47;5028049;28;20047;-72
2022/01/19 10:19:37;;;;;;;29.65;15.48;;;;;;;2.57;94.46;102349.44;5024163;28;20385;-72
2022/01/19 10:22:04;;;;;;;28.98;15.93;;;;;;;2.61;94.36;102359.09;5019989;28;20099;-72
2022/01/19 10:24:35;;;;;;;27.73;14.95;;;;;;;2.65;94.55;102349.34;5025619;28;20071;-72
2022/01/19 10:27:20;;;;;;;30.27;15.85;;;;;;;2.67;94.63;102350.16;5025167;28;20060;-73
2022/01/19 10:29:56;;;;;;;31.85;15.05;;;;;;;2.67;94.54;102341.34;5023749;28;20048;-73
2022/01/19 10:32:24;;;;;;;30.50;15.70;;;;;;;2.69;94.45;102339.53;5026169;28;20401;-72
2022/01/19 10:34:51;;;;;;;28.95;13.82;;;;;;;2.72;94.92;102340.34;5026461;28;20036;-72
2022/01/19 10:37:24;;;;;;;27.92;14.73;;;;;;;2.76;94.68;102331.44;5024861;28;20029;-73
2022/01/19 10:39:51;;;;;;;28.17;14.23;;;;;;;2.79;94.62;102320.75;5037864;28;20135;-73
2022/01/19 10:42:19;;;;;;;30.05;16.45;;;;;;;2.82;94.32;102314.53;5029477;28;20037;-73
2022/01/19 10:44:55;;;;;;;29.10;15.38;;;;;;;2.85;94.20;102309.16;5025540;28;20814;-73
2022/01/19 10:47:45;;;;;;;27.15;15.15;;;;;;;2.89;94.34;102310.84;5026219;28;20029;-73
2022/01/19 10:50:13;;;;;;;33.47;16.60;;;;;;;2.90;93.73;102295.78;5025014;28;20499;-72
2022/01/19 10:52:46;;;;;;;30.33;15.45;;;;;;;2.91;93.93;102302.88;5024135;28;20025;-72
2022/01/19 10:55:24;;;;;;;27.35;14.55;;;;;;;2.91;93.80;102316.13;5020922;28;20468;-72
2022/01/19 10:57:53;;;;;;;30.13;14.90;;;;;;;2.93;94.12;102317.00;5025439;28;20033;-73
2022/01/19 11:00:23;;;;;;;30.87;16.97;;;;;;;2.98;93.81;102312.47;5028624;28;20029;-73
2022/01/19 11:02:50;;;;;;;29.40;14.98;;;;;;;3.00;94.26;102292.06;5027049;28;20068;-73
2022/01/19 11:05:17;;;;;;;28.58;14.48;;;;;;;3.01;93.86;102285.84;5026049;28;20033;-73
2022/01/19 11:07:42;;;;;;;31.38;16.00;;;;;;;3.04;93.57;102288.44;5027126;28;20413;-73
2022/01/19 11:10:12;;;;;;;27.58;16.02;;;;;;;3.04;93.68;102282.28;5044995;28;20045;-73
2022/01/19 11:12:46;;;;;;;31.17;16.17;;;;;;;3.06;93.84;102286.66;5024366;28;20059;-73
2022/01/19 11:15:13;;;;;;;27.67;16.27;;;;;;;3.04;93.45;102282.28;5039393;28;20032;-73
2022/01/19 11:17:39;;;;;;;30.80;16.88;;;;;;;3.04;93.71;102274.31;5053879;28;20029;-73
2022/01/19 11:20:11;;;;;;;30.10;16.40;;;;;;;3.05;93.91;102258.34;5026491;28;20029;-73
2022/01/19 11:22:55;;;;;;;30.85;16.63;;;;;;;3.08;93.92;102260.94;5022533;28;20033;-73
2022/01/19 11:25:30;;;;;;;32.00;17.35;;;;;;;3.06;93.63;102254.78;5027540;28;20040;-73
2022/01/19 11:27:55;;;;;;;32.78;17.48;;;;;;;3.06;93.46;102244.16;5036259;28;20025;-73
2022/01/19 11:30:30;;;;;;;31.63;19.25;;;;;;;3.06;93.45;102249.47;5025680;28;20110;-73
2022/01/19 11:33:25;;;;;;;32.17;18.45;;;;;;;3.06;93.53;102244.16;5025246;28;20112;-73
2022/01/19 11:35:53;;;;;;;31.35;18.15;;;;;;;3.05;93.26;102237.09;5024725;28;20038;-73
2022/01/19 11:38:43;;;;;;;32.08;17.67;;;;;;;3.06;93.01;102222.91;5035045;28;20095;-72
2022/01/19 11:41:08;;;;;;;32.03;18.85;;;;;;;3.07;92.94;102223.78;5026260;28;20029;-73
2022/01/19 11:43:36;;;;;;;34.97;18.17;;;;;;;3.07;93.22;102219.31;5024702;28;20511;-73
2022/01/19 11:46:03;;;;;;;33.20;19.27;;;;;;;3.09;93.08;102221.94;5024028;28;20065;-72
2022/01/19 11:48:34;;;;;;;32.60;18.95;;;;;;;3.08;93.04;102205.16;5026356;28;20053;-72
2022/01/19 11:51:25;;;;;;;34.60;19.88;;;;;;;3.12;92.90;102200.66;5025418;28;20060;-72
2022/01/19 11:54:04;;;;;;;33.78;19.13;;;;;;;3.12;92.90;102198.88;5026905;28;20025;-72
2022/01/19 11:56:30;;;;;;;30.65;18.63;;;;;;;3.13;92.73;102192.66;5025996;28;20466;-73
2022/01/19 11:59:08;;;;;;;29.98;17.88;;;;;;;3.14;93.00;102186.41;5026910;28;20063;-73
2022/01/19 12:01:34;;;;;;;32.67;19.23;;;;;;;3.16;93.02;102181.06;5032077;28;20029;-72
2022/01/19 12:04:19;;;;;;;32.40;18.83;;;;;;;3.19;92.86;102190.78;5045761;28;20104;-73
2022/01/19 12:06:47;;;;;;;31.30;19.60;;;;;;;3.19;92.91;102177.50;5042972;28;20029;-73
2022/01/19 12:09:14;;;;;;;35.22;21.67;;;;;;;3.18;92.37;102179.28;5046238;28;20086;-73
2022/01/19 12:11:46;;;;;;;34.85;21.60;;;;;;;3.18;92.66;102166.00;5044663;28;21336;-73
2022/01/19 12:19:08;;;;;;;36.22;22.70;;;;;;;3.22;92.41;102150.84;5025105;28;20136;-73
2022/01/19 12:21:34;;;;;;;35.53;22.52;;;;;;;3.21;91.93;102144.69;5023021;28;20844;-73
2022/01/19 12:24:19;;;;;;;34.97;20.92;;;;;;;3.28;92.23;102138.31;5026063;28;20029;-73
2022/01/19 12:26:50;;;;;;;39.65;22.45;;;;;;;3.32;92.01;102137.34;5042663;28;20572;-73
2022/01/19 12:29:34;;;;;;;36.50;22.08;;;;;;;3.33;92.16;102122.28;5029708;28;20041;-72
2022/01/19 12:32:01;;;;;;;36.58;23.58;;;;;;;3.33;91.89;102132.91;5043570;28;20028;-72
2022/01/19 12:34:43;;;;;;;40.28;24.27;;;;;;;3.39;91.93;102134.56;5033095;28;20121;-72
2022/01/19 12:37:09;;;;;;;35.90;22.23;;;;;;;3.40;91.40;102133.66;5026529;28;20516;-72